createdAt,value
2023-05-21T00:00:21.785Z,9.27
2023-05-21T00:02:48.423Z,9.19
2023-05-21T00:05:17.114Z,9.33
2023-05-21T00:07:44.489Z,9.61
2023-05-21T00:10:11.264Z,9.64
2023-05-21T00:12:37.850Z,9.71
2023-05-21T00:15:04.848Z,9.62
2023-05-21T00:17:31.465Z,9.65
2023-05-21T00:19:58.017Z,9.71
2023-05-21T00:22:24.554Z,9.62
2023-05-21T00:24:51.210Z,9.48
2023-05-21T00:27:17.992Z,9.26
2023-05-21T00:29:44.639Z,9.10
2023-05-21T00:32:11.387Z,9.04
2023-05-21T00:34:38.331Z,9.11
2023-05-21T00:37:05.174Z,9.14
2023-05-21T00:39:31.877Z,9.12
2023-05-21T00:41:58.409Z,9.14
2023-05-21T00:44:25.514Z,9.11
2023-05-21T00:46:53.755Z,9.08
2023-05-21T00:49:22.527Z,9.07
2023-05-21T00:51:49.663Z,9.12
2023-05-21T00:54:16.307Z,9.15
2023-05-21T00:56:42.977Z,9.19
2023-05-21T00:59:09.682Z,9.17
2023-05-21T01:01:37.333Z,9.15
2023-05-21T01:04:04.314Z,9.11
2023-05-21T01:06:34.598Z,9.05
2023-05-21T01:09:05.220Z,8.94
2023-05-21T01:11:40.985Z,8.89
2023-05-21T01:14:09.459Z,8.61
2023-05-21T01:16:42.397Z,8.49
2023-05-21T01:19:14.168Z,8.40
2023-05-21T01:21:44.861Z,8.44
2023-05-21T01:24:11.556Z,8.40
2023-05-21T01:26:39.037Z,8.40
2023-05-21T01:29:15.026Z,8.36
2023-05-21T01:32:11.282Z,8.28
2023-05-21T01:34:48.135Z,8.21
2023-05-21T01:37:21.727Z,8.20
2023-05-21T01:39:52.457Z,8.18
2023-05-21T01:42:22.563Z,8.27
2023-05-21T01:44:55.035Z,8.30
2023-05-21T01:47:24.306Z,8.38
2023-05-21T01:49:52.364Z,8.32
2023-05-21T01:52:19.366Z,8.31
2023-05-21T01:54:45.896Z,8.27
2023-05-21T01:57:12.447Z,8.26
2023-05-21T01:59:39.023Z,8.31
2023-05-21T02:02:05.886Z,8.21
2023-05-21T02:04:32.498Z,8.20
2023-05-21T02:06:59.010Z,8.30
2023-05-21T02:09:25.593Z,8.13
2023-05-21T02:11:52.112Z,7.96
2023-05-21T02:14:18.677Z,7.98
2023-05-21T02:16:45.327Z,7.96
2023-05-21T02:19:12.087Z,8.08
2023-05-21T02:21:38.668Z,8.16
2023-05-21T02:24:05.516Z,8.21
2023-05-21T02:26:32.114Z,8.28
2023-05-21T02:28:58.748Z,8.11
2023-05-21T02:31:25.495Z,7.90
2023-05-21T02:33:52.069Z,7.85
2023-05-21T02:36:18.872Z,7.85
2023-05-21T02:38:45.607Z,7.92
2023-05-21T02:41:12.439Z,7.98
2023-05-21T02:43:39.289Z,7.98
2023-05-21T02:46:07.329Z,7.94
2023-05-21T02:48:33.873Z,7.91
2023-05-21T02:51:00.483Z,7.97
2023-05-21T02:53:27.095Z,8.04
2023-05-21T02:55:54.829Z,8.05
2023-05-21T02:58:23.523Z,8.13
2023-05-21T03:00:50.084Z,8.17
2023-05-21T03:03:16.756Z,8.24
2023-05-21T03:05:43.365Z,8.37
2023-05-21T03:08:09.944Z,8.52
2023-05-21T03:10:36.490Z,8.61
2023-05-21T03:13:06.028Z,8.52
2023-05-21T03:15:33.450Z,8.43
2023-05-21T03:18:00.475Z,8.31
2023-05-21T03:20:28.202Z,8.17
2023-05-21T03:22:55.841Z,8.04
2023-05-21T03:25:25.175Z,7.95
2023-05-21T03:27:52.409Z,7.92
2023-05-21T03:30:19.122Z,7.92
2023-05-21T03:32:47.748Z,8.00
2023-05-21T03:35:14.331Z,8.01
2023-05-21T03:37:41.076Z,8.07
2023-05-21T03:40:08.244Z,8.12
2023-05-21T03:42:34.783Z,8.10
2023-05-21T03:45:01.429Z,8.18
2023-05-21T03:47:28.067Z,8.24
2023-05-21T03:49:54.650Z,8.33
2023-05-21T03:52:21.204Z,8.32
2023-05-21T03:54:47.758Z,8.43
2023-05-21T03:57:14.314Z,8.59
2023-05-21T03:59:40.902Z,8.63
2023-05-21T04:02:07.447Z,8.72
2023-05-21T04:04:34.103Z,8.71
2023-05-21T04:07:00.943Z,8.75
2023-05-21T04:09:27.812Z,8.81
2023-05-21T04:11:54.522Z,8.96
2023-05-21T04:14:21.518Z,9.07
2023-05-21T04:16:49.158Z,9.21
2023-05-21T04:19:15.858Z,9.40
2023-05-21T04:21:45.153Z,9.53
2023-05-21T04:24:12.027Z,9.63
2023-05-21T04:26:42.017Z,9.68
2023-05-21T04:29:09.983Z,9.75
2023-05-21T04:31:36.854Z,9.78
2023-05-21T04:34:03.620Z,9.88
2023-05-21T04:36:30.231Z,9.95
2023-05-21T04:38:56.857Z,10.06
2023-05-21T04:41:23.429Z,10.21
2023-05-21T04:43:54.980Z,10.36
2023-05-21T04:46:25.365Z,10.48
2023-05-21T04:48:56.889Z,10.67
2023-05-21T04:51:25.003Z,10.78
2023-05-21T04:53:52.050Z,10.89
2023-05-21T04:56:18.861Z,11.09
2023-05-21T04:58:47.867Z,11.29
2023-05-21T05:01:16.040Z,11.43
2023-05-21T05:03:42.708Z,11.53
2023-05-21T05:06:09.306Z,11.64
2023-05-21T05:08:36.149Z,11.77
2023-05-21T05:11:03.097Z,11.91
2023-05-21T05:13:29.712Z,12.03
2023-05-21T05:15:57.473Z,12.18
2023-05-21T05:18:24.197Z,12.28
2023-05-21T05:20:50.736Z,12.32
2023-05-21T05:23:17.256Z,12.44
2023-05-21T05:25:43.860Z,12.62
2023-05-21T05:28:10.753Z,12.64
2023-05-21T05:30:37.441Z,12.68
2023-05-21T05:33:04.243Z,12.73
2023-05-21T05:35:31.002Z,12.84
2023-05-21T05:37:57.724Z,12.92
2023-05-21T05:40:24.324Z,12.99
2023-05-21T05:42:52.698Z,12.94
2023-05-21T05:45:19.946Z,13.07
2023-05-21T05:47:46.933Z,13.22
2023-05-21T05:50:13.658Z,13.22
2023-05-21T05:52:40.232Z,12.94
2023-05-21T05:55:09.044Z,12.90
2023-05-21T05:57:36.095Z,12.92
2023-05-21T06:00:03.989Z,12.90
2023-05-21T06:02:30.664Z,13.07
2023-05-21T06:04:58.376Z,13.31
2023-05-21T06:07:24.951Z,13.38
2023-05-21T06:09:51.520Z,13.56
2023-05-21T06:12:18.160Z,13.68
2023-05-21T06:14:46.055Z,13.90
2023-05-21T06:17:12.766Z,14.06
2023-05-21T06:19:39.723Z,14.13
2023-05-21T06:22:06.257Z,14.18
2023-05-21T06:24:32.880Z,14.19
2023-05-21T06:26:59.425Z,14.31
2023-05-21T06:29:25.976Z,14.46
2023-05-21T06:31:52.522Z,14.67
2023-05-21T06:34:19.070Z,14.87
2023-05-21T06:36:45.882Z,14.92
2023-05-21T06:39:12.452Z,14.98
2023-05-21T06:41:39.024Z,14.92
2023-05-21T06:44:06.018Z,14.87
2023-05-21T06:46:32.667Z,15.05
2023-05-21T06:49:01.021Z,15.24
2023-05-21T06:51:27.595Z,15.37
2023-05-21T06:53:54.177Z,15.60
2023-05-21T06:56:21.985Z,15.60
2023-05-21T06:58:48.541Z,15.72
2023-05-21T07:01:15.336Z,15.86
2023-05-21T07:03:41.981Z,15.95
2023-05-21T07:06:08.614Z,15.86
2023-05-21T07:08:35.226Z,15.80
2023-05-21T07:11:01.836Z,15.94
2023-05-21T07:13:29.248Z,16.09
2023-05-21T07:15:55.998Z,16.09
2023-05-21T07:18:22.564Z,16.06
2023-05-21T07:20:49.147Z,16.20
2023-05-21T07:23:15.793Z,16.41
2023-05-21T07:25:42.366Z,16.50
2023-05-21T07:28:09.014Z,16.39
2023-05-21T07:30:35.577Z,16.40
2023-05-21T07:33:02.231Z,16.48
2023-05-21T07:35:29.208Z,16.62
2023-05-21T07:37:55.917Z,16.73
2023-05-21T07:40:22.557Z,16.71
2023-05-21T07:42:49.139Z,16.74
2023-05-21T07:45:15.773Z,16.75
2023-05-21T07:47:43.273Z,16.59
2023-05-21T07:50:10.778Z,16.60
2023-05-21T07:52:37.454Z,16.64
2023-05-21T07:55:04.343Z,16.74
2023-05-21T07:57:30.902Z,16.68
2023-05-21T07:59:57.437Z,16.71
2023-05-21T08:02:24.230Z,17.04
2023-05-21T08:04:52.601Z,17.32
2023-05-21T08:07:20.245Z,17.49
2023-05-21T08:09:47.141Z,17.75
2023-05-21T08:12:15.923Z,17.76
2023-05-21T08:14:42.733Z,17.52
2023-05-21T08:17:10.479Z,17.34
2023-05-21T08:19:37.357Z,17.37
2023-05-21T08:22:04.175Z,17.60
2023-05-21T08:24:30.832Z,17.86
2023-05-21T08:26:57.385Z,18.07
2023-05-21T08:29:23.960Z,18.13
2023-05-21T08:31:50.624Z,17.86
2023-05-21T08:34:18.656Z,17.85
2023-05-21T08:36:46.261Z,17.74
2023-05-21T08:39:13.257Z,17.92
2023-05-21T08:41:40.399Z,18.01
2023-05-21T08:44:12.590Z,18.40
2023-05-21T08:46:40.766Z,18.57
2023-05-21T08:49:12.805Z,18.49
2023-05-21T08:51:39.606Z,18.60
2023-05-21T08:54:07.378Z,18.62
2023-05-21T08:56:35.184Z,18.46
2023-05-21T08:59:02.612Z,18.35
2023-05-21T09:01:29.366Z,18.24
2023-05-21T09:04:04.870Z,18.37
2023-05-21T09:06:40.834Z,18.37
2023-05-21T09:09:34.456Z,18.83
2023-05-21T09:12:00.990Z,19.19
2023-05-21T09:14:28.418Z,18.97
2023-05-21T09:16:55.003Z,19.18
2023-05-21T09:19:24.834Z,19.20
2023-05-21T09:21:52.794Z,19.36
2023-05-21T09:24:22.666Z,19.42
2023-05-21T09:26:49.291Z,19.41
2023-05-21T09:29:15.921Z,19.63
2023-05-21T09:31:45.896Z,19.59
2023-05-21T09:34:14.148Z,19.72
2023-05-21T09:36:40.836Z,19.86
2023-05-21T09:39:07.535Z,19.79
2023-05-21T09:41:36.009Z,19.72
2023-05-21T09:44:03.359Z,19.51
2023-05-21T09:46:42.509Z,19.24
2023-05-21T09:49:26.388Z,19.48
2023-05-21T09:51:57.216Z,19.63
2023-05-21T09:54:24.794Z,19.73
2023-05-21T09:56:54.732Z,19.92
2023-05-21T09:59:21.768Z,20.15
2023-05-21T10:01:51.955Z,20.20
2023-05-21T10:04:19.056Z,20.32
2023-05-21T10:06:47.887Z,20.49
2023-05-21T10:09:18.853Z,20.77
2023-05-21T10:11:48.147Z,21.00
2023-05-21T10:14:22.557Z,21.03
2023-05-21T10:16:50.381Z,21.06
2023-05-21T10:19:17.561Z,20.78
2023-05-21T10:21:45.797Z,20.57
2023-05-21T10:24:13.662Z,20.07
2023-05-21T10:26:41.678Z,20.17
2023-05-21T10:29:09.045Z,20.16
2023-05-21T10:31:38.719Z,20.26
2023-05-21T10:34:06.351Z,20.25
2023-05-21T10:36:34.310Z,20.75
2023-05-21T10:39:02.105Z,21.03
2023-05-21T10:41:35.836Z,21.41
2023-05-21T10:44:28.120Z,21.42
2023-05-21T10:47:07.166Z,21.03
2023-05-21T10:50:01.747Z,20.99
2023-05-21T10:52:54.843Z,21.00
2023-05-21T10:55:44.993Z,21.15
2023-05-21T10:58:35.814Z,21.31
2023-05-21T11:01:03.857Z,21.50
2023-05-21T11:03:34.106Z,21.52
2023-05-21T11:06:03.645Z,21.47
2023-05-21T11:08:31.828Z,21.52
2023-05-21T11:10:59.434Z,21.53
2023-05-21T11:13:27.464Z,21.94
2023-05-21T11:16:05.188Z,21.73
2023-05-21T11:18:40.492Z,21.69
2023-05-21T11:21:11.839Z,21.95
2023-05-21T11:23:50.526Z,22.11
2023-05-21T11:26:24.516Z,22.23
2023-05-21T11:29:06.947Z,22.26
2023-05-21T11:31:41.277Z,22.45
2023-05-21T11:34:35.029Z,22.49
2023-05-21T11:37:36.946Z,22.09
2023-05-21T11:40:25.708Z,22.05
2023-05-21T11:42:54.639Z,22.24
2023-05-21T11:45:23.503Z,22.26
2023-05-21T11:47:51.501Z,22.28
2023-05-21T11:50:18.644Z,22.29
2023-05-21T11:52:45.530Z,22.36
2023-05-21T11:55:12.622Z,22.01
2023-05-21T11:57:44.255Z,21.74
2023-05-21T12:00:16.105Z,21.75
2023-05-21T12:02:48.280Z,21.85
2023-05-21T12:05:15.185Z,21.80
2023-05-21T12:07:42.275Z,21.63
2023-05-21T12:10:09.381Z,21.55
2023-05-21T12:12:49.965Z,21.39
2023-05-21T12:15:21.426Z,21.51
2023-05-21T12:17:52.625Z,21.77
2023-05-21T12:20:19.984Z,21.76
2023-05-21T12:22:48.956Z,21.61
2023-05-21T12:25:19.824Z,21.57
2023-05-21T12:27:47.553Z,21.55
2023-05-21T12:30:14.800Z,21.66
2023-05-21T12:32:46.483Z,21.91
2023-05-21T12:35:23.213Z,22.07
2023-05-21T12:37:53.201Z,21.82
2023-05-21T12:40:20.053Z,21.70
2023-05-21T12:42:46.824Z,21.92
2023-05-21T12:45:13.897Z,21.89
2023-05-21T12:47:40.615Z,22.03
2023-05-21T12:50:13.968Z,22.18
2023-05-21T12:52:43.040Z,22.15
2023-05-21T12:55:11.793Z,22.19
2023-05-21T12:57:39.010Z,22.30
2023-05-21T13:00:07.316Z,22.33
2023-05-21T13:02:42.506Z,22.25
2023-05-21T13:05:17.303Z,22.26
2023-05-21T13:07:47.528Z,22.04
2023-05-21T13:10:16.859Z,22.22
2023-05-21T13:12:44.676Z,22.33
2023-05-21T13:15:12.093Z,22.35
2023-05-21T13:17:38.752Z,22.27
2023-05-21T13:20:12.544Z,22.54
2023-05-21T13:22:43.893Z,22.61
2023-05-21T13:25:11.747Z,22.54
2023-05-21T13:27:39.735Z,22.46
2023-05-21T13:30:07.386Z,22.42
2023-05-21T13:32:34.277Z,22.06
2023-05-21T13:35:01.006Z,22.00
2023-05-21T13:37:27.828Z,22.31
2023-05-21T13:39:54.614Z,22.56
2023-05-21T13:42:21.500Z,22.61
2023-05-21T13:44:48.477Z,22.61
2023-05-21T13:47:15.438Z,22.38
2023-05-21T13:49:42.808Z,22.36
2023-05-21T13:52:09.939Z,22.57
2023-05-21T13:54:36.825Z,22.92
2023-05-21T13:57:03.941Z,23.20
2023-05-21T13:59:32.699Z,22.97
2023-05-21T14:02:00.421Z,22.94
2023-05-21T14:04:27.303Z,22.92
2023-05-21T14:06:54.094Z,22.90
2023-05-21T14:09:21.430Z,22.75
2023-05-21T14:11:48.021Z,22.62
2023-05-21T14:14:18.945Z,22.47
2023-05-21T14:16:49.626Z,22.48
2023-05-21T14:19:16.522Z,22.34
2023-05-21T14:21:43.741Z,22.41
2023-05-21T14:24:10.335Z,22.58
2023-05-21T14:26:41.418Z,22.63
2023-05-21T14:29:08.235Z,22.65
2023-05-21T14:31:34.970Z,22.51
2023-05-21T14:34:02.973Z,22.35
2023-05-21T14:36:29.850Z,22.62
2023-05-21T14:38:56.594Z,22.61
2023-05-21T14:41:27.292Z,22.91
2023-05-21T14:43:54.555Z,22.99
2023-05-21T14:46:21.730Z,23.07
2023-05-21T14:48:48.335Z,23.34
2023-05-21T14:51:15.034Z,23.07
2023-05-21T14:53:41.604Z,22.93
2023-05-21T14:56:08.418Z,22.88
2023-05-21T14:58:35.005Z,22.84
2023-05-21T15:01:02.660Z,22.83
2023-05-21T15:03:29.555Z,23.09
2023-05-21T15:05:56.265Z,23.44
2023-05-21T15:08:22.941Z,23.66
2023-05-21T15:10:49.521Z,23.77
2023-05-21T15:13:16.102Z,23.14
2023-05-21T15:15:42.752Z,22.73
2023-05-21T15:18:09.401Z,22.69
2023-05-21T15:20:36.028Z,22.78
2023-05-21T15:25:32.211Z,22.78
2023-05-21T15:27:58.781Z,22.90
2023-05-21T15:30:27.264Z,22.98
2023-05-21T15:32:54.136Z,23.03
2023-05-21T15:35:20.850Z,22.94
2023-05-21T15:37:47.563Z,22.98
2023-05-21T15:40:14.192Z,23.20
2023-05-21T15:42:40.901Z,23.32
2023-05-21T15:45:07.956Z,23.52
2023-05-21T15:47:34.647Z,23.25
2023-05-21T15:50:01.277Z,23.34
2023-05-21T15:52:27.896Z,23.42
2023-05-21T15:54:54.800Z,23.58
2023-05-21T15:57:21.546Z,23.55
2023-05-21T15:59:48.275Z,23.54
2023-05-21T16:02:14.805Z,23.61
2023-05-21T16:04:41.458Z,23.51
2023-05-21T16:07:08.041Z,23.28
2023-05-21T16:09:35.434Z,22.99
2023-05-21T16:12:02.022Z,23.18
2023-05-21T16:14:29.390Z,23.14
2023-05-21T16:16:56.164Z,23.10
2023-05-21T16:19:22.913Z,22.99
2023-05-21T16:21:49.775Z,22.80
2023-05-21T16:24:16.356Z,22.54
2023-05-21T16:26:43.766Z,22.45
2023-05-21T16:29:10.303Z,22.38
2023-05-21T16:31:38.504Z,22.35
2023-05-21T16:34:05.120Z,22.32
2023-05-21T16:36:31.774Z,22.29
2023-05-21T16:38:58.324Z,22.26
2023-05-21T16:41:25.007Z,22.38
2023-05-21T16:43:54.260Z,22.40
2023-05-21T16:46:21.244Z,22.36
2023-05-21T16:48:47.871Z,22.17
2023-05-21T16:51:14.459Z,22.19
2023-05-21T16:53:41.218Z,22.14
2023-05-21T16:56:07.815Z,22.25
2023-05-21T16:58:36.102Z,22.50
2023-05-21T17:01:03.826Z,22.77
2023-05-21T17:03:32.515Z,22.95
2023-05-21T17:05:59.291Z,23.45
2023-05-21T17:08:26.081Z,23.81
2023-05-21T17:10:52.673Z,24.08
2023-05-21T17:13:22.630Z,24.38
2023-05-21T17:15:51.436Z,24.32
2023-05-21T17:18:18.265Z,24.23
2023-05-21T17:20:44.962Z,24.18
2023-05-21T17:23:12.303Z,24.12
2023-05-21T17:25:39.895Z,23.94
2023-05-21T17:28:06.811Z,23.35
2023-05-21T17:30:33.469Z,22.47
2023-05-21T17:33:02.232Z,21.24
2023-05-21T17:35:29.340Z,20.10
2023-05-21T17:37:56.033Z,19.38
2023-05-21T17:40:24.596Z,18.94
2023-05-21T17:42:52.389Z,18.62
2023-05-21T17:45:19.481Z,18.36
2023-05-21T17:47:46.512Z,18.14
2023-05-21T17:50:13.203Z,17.94
2023-05-21T17:52:40.005Z,17.72
2023-05-21T17:55:07.933Z,17.51
2023-05-21T17:57:35.993Z,17.36
2023-05-21T18:00:04.920Z,17.15
2023-05-21T18:02:31.605Z,16.94
2023-05-21T18:04:58.295Z,16.78
2023-05-21T18:07:24.853Z,16.58
2023-05-21T18:09:51.498Z,16.40
2023-05-21T18:12:18.044Z,16.23
2023-05-21T18:14:44.622Z,16.13
2023-05-21T18:17:11.244Z,16.03
2023-05-21T18:19:37.852Z,15.96
2023-05-21T18:22:05.159Z,15.86
2023-05-21T18:24:31.871Z,15.67
2023-05-21T18:26:58.569Z,15.58
2023-05-21T18:29:25.133Z,15.40
2023-05-21T18:31:51.856Z,15.21
2023-05-21T18:34:18.441Z,15.12
2023-05-21T18:36:45.087Z,15.02
2023-05-21T18:39:11.693Z,14.96
2023-05-21T18:41:38.812Z,14.92
2023-05-21T18:44:06.153Z,14.77
2023-05-21T18:46:33.145Z,14.78
2023-05-21T18:49:00.504Z,14.92
2023-05-21T18:51:27.291Z,14.87
2023-05-21T18:53:53.854Z,14.80
2023-05-21T18:56:21.833Z,14.80
2023-05-21T18:58:48.609Z,14.87
2023-05-21T19:01:16.108Z,14.99
2023-05-21T19:03:42.754Z,14.92
2023-05-21T19:06:09.585Z,14.96
2023-05-21T19:08:36.208Z,14.89
2023-05-21T19:11:03.061Z,14.84
2023-05-21T19:13:29.725Z,14.81
2023-05-21T19:15:58.329Z,14.87
2023-05-21T19:18:30.436Z,14.83
2023-05-21T19:20:57.398Z,14.83
2023-05-21T19:23:24.894Z,14.87
2023-05-21T19:25:51.595Z,14.86
2023-05-21T19:28:18.925Z,14.82
2023-05-21T19:30:46.350Z,14.76
2023-05-21T19:33:13.605Z,14.76
2023-05-21T19:35:42.010Z,14.66
2023-05-21T19:38:11.799Z,14.70
2023-05-21T19:40:38.673Z,14.66
2023-05-21T19:43:05.520Z,14.59
2023-05-21T19:45:32.164Z,14.52
2023-05-21T19:47:59.811Z,14.53
2023-05-21T19:50:28.564Z,14.36
2023-05-21T19:52:57.163Z,14.23
2023-05-21T19:55:24.782Z,13.97
2023-05-21T19:57:51.726Z,13.79
2023-05-21T20:00:19.234Z,13.65
2023-05-21T20:02:46.364Z,13.41
2023-05-21T20:05:13.217Z,13.27
2023-05-21T20:07:40.059Z,13.24
2023-05-21T20:10:07.521Z,13.21
2023-05-21T20:12:34.212Z,13.02
2023-05-21T20:15:01.008Z,12.81
2023-05-21T20:17:28.710Z,12.65
2023-05-21T20:19:57.234Z,12.63
2023-05-21T20:22:23.922Z,12.63
2023-05-21T20:24:50.680Z,12.62
2023-05-21T20:27:19.407Z,12.64
2023-05-21T20:29:46.280Z,12.64
2023-05-21T20:32:13.307Z,12.63
2023-05-21T20:34:54.420Z,12.63
2023-05-21T20:37:27.952Z,12.63
2023-05-21T20:39:57.784Z,12.62
2023-05-21T20:42:28.472Z,12.52
2023-05-21T20:44:55.592Z,12.43
2023-05-21T20:47:23.374Z,12.31
2023-05-21T20:49:53.747Z,12.34
2023-05-21T20:52:20.667Z,12.39
2023-05-21T20:54:49.014Z,12.31
2023-05-21T20:57:16.093Z,12.27
2023-05-21T20:59:43.095Z,12.27
2023-05-21T21:02:12.636Z,12.19
2023-05-21T21:04:39.790Z,12.15
2023-05-21T21:07:08.050Z,12.28
2023-05-21T21:09:34.607Z,12.34
2023-05-21T21:12:06.256Z,12.29
2023-05-21T21:14:38.082Z,12.21
2023-05-21T21:17:04.847Z,12.14
2023-05-21T21:19:31.521Z,12.18
2023-05-21T21:21:58.436Z,12.29
2023-05-21T21:24:25.067Z,12.31
2023-05-21T21:26:51.631Z,12.26
2023-05-21T21:29:18.181Z,12.39
2023-05-21T21:31:47.456Z,12.36
2023-05-21T21:34:14.323Z,12.38
2023-05-21T21:36:40.910Z,12.34
2023-05-21T21:39:07.575Z,12.40
2023-05-21T21:41:34.364Z,12.36
2023-05-21T21:44:01.108Z,12.42
2023-05-21T21:46:27.688Z,12.47
2023-05-21T21:48:54.289Z,12.58
2023-05-21T21:51:23.215Z,12.55
2023-05-21T21:53:50.171Z,12.49
2023-05-21T21:56:16.747Z,12.32
2023-05-21T21:58:43.448Z,12.23
2023-05-21T22:01:10.180Z,12.04
2023-05-21T22:03:36.926Z,11.90
2023-05-21T22:06:03.612Z,11.80
2023-05-21T22:08:30.267Z,11.79
2023-05-21T22:10:56.948Z,11.69
2023-05-21T22:13:24.551Z,11.56
2023-05-21T22:15:51.606Z,11.53
2023-05-21T22:18:28.209Z,11.43
2023-05-21T22:21:03.832Z,11.30
2023-05-21T22:23:30.525Z,11.16
2023-05-21T22:25:57.076Z,11.15
2023-05-21T22:28:23.625Z,11.05
2023-05-21T22:30:50.196Z,10.93
2023-05-21T22:33:16.961Z,10.91
2023-05-21T22:35:43.752Z,10.85
2023-05-21T22:38:10.365Z,10.74
2023-05-21T22:40:38.118Z,10.78
2023-05-21T22:43:05.018Z,10.66
2023-05-21T22:45:31.627Z,10.55
2023-05-21T22:48:01.668Z,10.50
2023-05-21T22:50:29.488Z,10.38
2023-05-21T22:52:56.158Z,10.32
2023-05-21T22:55:22.715Z,10.26
2023-05-21T22:57:49.310Z,10.33
2023-05-21T23:00:19.078Z,10.36
2023-05-21T23:02:47.172Z,10.32
2023-05-21T23:05:13.929Z,10.30
2023-05-21T23:07:41.372Z,10.30
2023-05-21T23:10:09.027Z,10.26
2023-05-21T23:12:36.563Z,10.27
2023-05-21T23:15:04.907Z,10.42
2023-05-21T23:17:31.745Z,10.54
2023-05-21T23:19:59.505Z,10.60
2023-05-21T23:22:26.283Z,10.53
2023-05-21T23:24:54.224Z,10.42
2023-05-21T23:27:20.961Z,10.40
2023-05-21T23:29:47.518Z,10.38
2023-05-21T23:32:14.144Z,10.32
2023-05-21T23:34:42.005Z,10.32
2023-05-21T23:37:08.685Z,10.32
2023-05-21T23:39:36.650Z,10.31
2023-05-21T23:42:03.534Z,10.31
2023-05-21T23:44:30.113Z,10.23
2023-05-21T23:46:56.748Z,10.24
2023-05-21T23:49:23.303Z,10.20
2023-05-21T23:51:50.799Z,10.15
2023-05-21T23:54:17.565Z,10.16
2023-05-21T23:56:45.394Z,10.12
2023-05-21T23:59:12.020Z,10.07
